sensor_id;sensor_type;location;lat;lon;timestamp;pressure;altitude;pressure_sealevel;temperature;humidity
21826;BME280;11075;47.944;11.776;2023-07-09T00:01:22;95290.16;;;5.79;100.00
21826;BME280;11075;47.944;11.776;2023-07-09T00:03:49;95286.66;;;5.65;100.00
21826;BME280;11075;47.944;11.776;2023-07-09T00:06:18;95296.00;;;5.81;100.00
21826;BME280;11075;47.944;11.776;2023-07-09T00:08:48;95291.47;;;5.82;100.00
21826;BME280;11075;47.944;11.776;2023-07-09T00:11:16;95288.81;;;5.44;100.00
21826;BME280;11075;47.944;11.776;2023-07-09T00:13:43;95290.41;;;5.64;100.00
21826;BME280;11075;47.944;11.776;2023-07-09T00:16:16;95290.84;;;5.33;100.00
21826;BME280;11075;47.944;11.776;2023-07-09T00:18:45;95288.44;;;5.32;100.00
21826;BME280;11075;47.944;11.776;2023-07-09T00:21:20;95289.88;;;5.43;100.00
21826;BME280;11075;47.944;11.776;2023-07-09T00:23:50;95294.56;;;4.95;100.00
21826;BME280;11075;47.944;11.776;2023-07-09T00:26:18;95291.56;;;5.20;100.00
21826;BME280;11075;47.944;11.776;2023-07-09T00:28:50;95294.13;;;5.07;100.00
21826;BME280;11075;47.944;11.776;2023-07-09T00:31:17;95299.22;;;5.27;100.00
21826;BME280;11075;47.944;11.776;2023-07-09T00:33:44;95295.91;;;5.54;100.00
21826;BME280;11075;47.944;11.776;2023-07-09T00:36:18;95304.06;;;5.62;100.00
21826;BME280;11075;47.944;11.776;2023-07-09T00:38:46;95302.03;;;5.54;100.00
21826;BME280;11075;47.944;11.776;2023-07-09T00:41:18;95301.13;;;5.02;100.00
21826;BME280;11075;47.944;11.776;2023-07-09T00:43:46;95310.47;;;4.57;100.00
21826;BME280;11075;47.944;11.776;2023-07-09T00:48:53;95312.28;;;4.86;100.00
21826;BME280;11075;47.944;11.776;2023-07-09T00:51:26;95302.94;;;5.07;100.00
21826;BME280;11075;47.944;11.776;2023-07-09T00:53:57;95305.78;;;5.16;100.00
21826;BME280;11075;47.944;11.776;2023-07-09T00:56:31;95310.13;;;5.30;100.00
21826;BME280;11075;47.944;11.776;2023-07-09T00:59:01;95314.22;;;5.42;100.00
21826;BME280;11075;47.944;11.776;2023-07-09T01:01:32;95310.31;;;5.34;100.00
21826;BME280;11075;47.944;11.776;2023-07-09T01:04:00;95310.84;;;5.36;100.00
21826;BME280;11075;47.944;11.776;2023-07-09T01:06:51;95312.84;;;5.25;100.00
21826;BME280;11075;47.944;11.776;2023-07-09T01:09:22;95318.19;;;5.07;100.00
21826;BME280;11075;47.944;11.776;2023-07-09T01:11:49;95312.09;;;5.01;100.00
21826;BME280;11075;47.944;11.776;2023-07-09T01:14:19;95316.72;;;4.71;100.00
21826;BME280;11075;47.944;11.776;2023-07-09T01:16:53;95317.63;;;4.86;100.00
21826;BME280;11075;47.944;11.776;2023-07-09T01:19:25;95312.13;;;4.77;100.00
21826;BME280;11075;47.944;11.776;2023-07-09T01:21:59;95316.41;;;4.78;100.00
21826;BME280;11075;47.944;11.776;2023-07-09T01:27:26;95318.97;;;4.59;100.00
21826;BME280;11075;47.944;11.776;2023-07-09T01:29:55;95321.81;;;4.44;100.00
21826;BME280;11075;47.944;11.776;2023-07-09T01:32:23;95319.63;;;4.22;100.00
21826;BME280;11075;47.944;11.776;2023-07-09T01:34:53;95316.69;;;4.48;100.00
21826;BME280;11075;47.944;11.776;2023-07-09T01:37:24;95322.22;;;4.56;100.00
21826;BME280;11075;47.944;11.776;2023-07-09T01:39:52;95321.75;;;4.49;100.00
21826;BME280;11075;47.944;11.776;2023-07-09T01:42:21;95326.66;;;4.13;100.00
21826;BME280;11075;47.944;11.776;2023-07-09T01:44:49;95325.66;;;4.33;100.00
21826;BME280;11075;47.944;11.776;2023-07-09T01:47:17;95319.47;;;4.37;100.00
21826;BME280;11075;47.944;11.776;2023-07-09T01:49:45;95320.44;;;4.47;100.00
21826;BME280;11075;47.944;11.776;2023-07-09T01:52:16;95320.50;;;4.13;100.00
21826;BME280;11075;47.944;11.776;2023-07-09T01:54:45;95322.47;;;4.02;100.00
21826;BME280;11075;47.944;11.776;2023-07-09T01:57:23;95332.22;;;4.17;100.00
21826;BME280;11075;47.944;11.776;2023-07-09T01:59:54;95326.38;;;4.15;100.00
21826;BME280;11075;47.944;11.776;2023-07-09T02:02:22;95327.38;;;4.48;100.00
21826;BME280;11075;47.944;11.776;2023-07-09T02:04:51;95330.38;;;4.70;100.00
21826;BME280;11075;47.944;11.776;2023-07-09T02:07:19;95331.69;;;4.73;100.00
21826;BME280;11075;47.944;11.776;2023-07-09T02:09:47;95335.03;;;4.83;100.00
21826;BME280;11075;47.944;11.776;2023-07-09T02:12:15;95325.94;;;4.84;100.00
21826;BME280;11075;47.944;11.776;2023-07-09T02:14:44;95341.84;;;4.13;100.00
21826;BME280;11075;47.944;11.776;2023-07-09T02:17:13;95344.09;;;4.00;100.00
21826;BME280;11075;47.944;11.776;2023-07-09T02:19:40;95336.31;;;4.33;100.00
21826;BME280;11075;47.944;11.776;2023-07-09T02:22:08;95327.84;;;4.55;100.00
21826;BME280;11075;47.944;11.776;2023-07-09T02:24:35;95333.09;;;4.36;100.00
21826;BME280;11075;47.944;11.776;2023-07-09T02:27:04;95342.59;;;4.18;100.00
21826;BME280;11075;47.944;11.776;2023-07-09T02:29:32;95348.03;;;4.37;100.00
21826;BME280;11075;47.944;11.776;2023-07-09T02:32:00;95335.31;;;4.53;100.00
21826;BME280;11075;47.944;11.776;2023-07-09T02:34:30;95350.50;;;4.28;100.00
21826;BME280;11075;47.944;11.776;2023-07-09T02:36:58;95349.75;;;4.23;100.00
21826;BME280;11075;47.944;11.776;2023-07-09T02:39:26;95339.88;;;4.23;100.00
21826;BME280;11075;47.944;11.776;2023-07-09T02:41:53;95344.63;;;4.31;100.00
21826;BME280;11075;47.944;11.776;2023-07-09T02:44:26;95343.72;;;4.12;100.00
21826;BME280;11075;47.944;11.776;2023-07-09T02:46:53;95346.44;;;4.36;100.00
21826;BME280;11075;47.944;11.776;2023-07-09T02:49:20;95347.13;;;4.47;100.00
21826;BME280;11075;47.944;11.776;2023-07-09T02:51:46;95342.59;;;4.47;100.00
21826;BME280;11075;47.944;11.776;2023-07-09T02:54:13;95348.25;;;4.40;100.00
21826;BME280;11075;47.944;11.776;2023-07-09T02:56:40;95345.22;;;4.52;100.00
21826;BME280;11075;47.944;11.776;2023-07-09T02:59:07;95353.50;;;4.51;100.00
21826;BME280;11075;47.944;11.776;2023-07-09T03:01:34;95355.00;;;4.33;100.00
21826;BME280;11075;47.944;11.776;2023-07-09T03:04:02;95359.63;;;4.22;100.00
21826;BME280;11075;47.944;11.776;2023-07-09T03:06:32;95358.97;;;4.06;100.00
21826;BME280;11075;47.944;11.776;2023-07-09T03:09:03;95358.97;;;4.06;100.00
21826;BME280;11075;47.944;11.776;2023-07-09T03:11:32;95358.53;;;3.94;100.00
21826;BME280;11075;47.944;11.776;2023-07-09T03:14:00;95364.03;;;4.08;100.00
21826;BME280;11075;47.944;11.776;2023-07-09T03:16:28;95358.69;;;4.37;100.00
21826;BME280;11075;47.944;11.776;2023-07-09T03:18:56;95363.00;;;4.33;100.00
21826;BME280;11075;47.944;11.776;2023-07-09T03:21:24;95362.59;;;4.50;100.00
21826;BME280;11075;47.944;11.776;2023-07-09T03:23:53;95354.25;;;4.56;100.00
21826;BME280;11075;47.944;11.776;2023-07-09T03:26:20;95370.63;;;4.45;100.00
21826;BME280;11075;47.944;11.776;2023-07-09T03:28:47;95366.44;;;4.38;100.00
21826;BME280;11075;47.944;11.776;2023-07-09T03:31:15;95367.53;;;4.03;100.00
21826;BME280;11075;47.944;11.776;2023-07-09T03:33:42;95377.13;;;4.04;100.00
21826;BME280;11075;47.944;11.776;2023-07-09T03:36:09;95372.31;;;4.35;100.00
21826;BME280;11075;47.944;11.776;2023-07-09T03:38:36;95379.56;;;4.30;100.00
21826;BME280;11075;47.944;11.776;2023-07-09T03:41:03;95384.31;;;4.38;100.00
21826;BME280;11075;47.944;11.776;2023-07-09T03:43:30;95378.66;;;4.45;100.00
21826;BME280;11075;47.944;11.776;2023-07-09T03:45:56;95382.00;;;4.26;100.00
21826;BME280;11075;47.944;11.776;2023-07-09T03:48:23;95378.88;;;4.19;100.00
21826;BME280;11075;47.944;11.776;2023-07-09T03:50:50;95380.59;;;4.34;100.00
21826;BME280;11075;47.944;11.776;2023-07-09T03:53:17;95383.69;;;4.46;100.00
21826;BME280;11075;47.944;11.776;2023-07-09T03:55:51;95384.81;;;4.40;100.00
21826;BME280;11075;47.944;11.776;2023-07-09T03:58:19;95384.78;;;4.45;100.00
21826;BME280;11075;47.944;11.776;2023-07-09T04:00:45;95375.19;;;4.73;100.00
21826;BME280;11075;47.944;11.776;2023-07-09T04:03:12;95381.97;;;4.60;100.00
21826;BME280;11075;47.944;11.776;2023-07-09T04:05:39;95385.47;;;4.27;100.00
21826;BME280;11075;47.944;11.776;2023-07-09T04:08:06;95376.91;;;4.30;100.00
21826;BME280;11075;47.944;11.776;2023-07-09T04:10:33;95371.91;;;4.52;100.00
21826;BME280;11075;47.944;11.776;2023-07-09T04:12:59;95377.13;;;4.67;100.00
21826;BME280;11075;47.944;11.776;2023-07-09T04:15:27;95380.75;;;4.77;100.00
21826;BME280;11075;47.944;11.776;2023-07-09T04:17:53;95379.06;;;4.86;100.00
21826;BME280;11075;47.944;11.776;2023-07-09T04:20:21;95379.84;;;4.57;100.00
21826;BME280;11075;47.944;11.776;2023-07-09T04:22:48;95380.34;;;4.88;100.00
21826;BME280;11075;47.944;11.776;2023-07-09T04:25:15;95383.13;;;5.02;100.00
21826;BME280;11075;47.944;11.776;2023-07-09T04:27:42;95380.53;;;4.97;100.00
21826;BME280;11075;47.944;11.776;2023-07-09T04:30:12;95379.34;;;4.84;100.00
21826;BME280;11075;47.944;11.776;2023-07-09T04:32:42;95389.63;;;4.96;100.00
21826;BME280;11075;47.944;11.776;2023-07-09T04:35:11;95394.34;;;4.80;100.00
21826;BME280;11075;47.944;11.776;2023-07-09T04:37:39;95390.47;;;5.15;100.00
21826;BME280;11075;47.944;11.776;2023-07-09T04:40:07;95383.84;;;5.55;100.00
21826;BME280;11075;47.944;11.776;2023-07-09T04:42:37;95391.81;;;5.36;100.00
21826;BME280;11075;47.944;11.776;2023-07-09T04:45:09;95393.78;;;5.07;100.00
21826;BME280;11075;47.944;11.776;2023-07-09T04:47:37;95399.84;;;4.89;100.00
21826;BME280;11075;47.944;11.776;2023-07-09T04:50:05;95390.06;;;5.27;100.00
21826;BME280;11075;47.944;11.776;2023-07-09T04:52:33;95396.06;;;5.38;100.00
21826;BME280;11075;47.944;11.776;2023-07-09T04:55:00;95393.97;;;5.34;100.00
21826;BME280;11075;47.944;11.776;2023-07-09T04:57:28;95399.25;;;5.40;100.00
21826;BME280;11075;47.944;11.776;2023-07-09T04:59:55;95391.28;;;5.77;100.00
21826;BME280;11075;47.944;11.776;2023-07-09T05:02:22;95387.50;;;5.97;100.00
21826;BME280;11075;47.944;11.776;2023-07-09T05:04:49;95385.03;;;6.19;100.00
21826;BME280;11075;47.944;11.776;2023-07-09T05:07:16;95385.03;;;6.19;100.00
21826;BME280;11075;47.944;11.776;2023-07-09T05:09:43;95388.91;;;6.27;100.00
21826;BME280;11075;47.944;11.776;2023-07-09T05:12:10;95394.25;;;6.27;100.00
21826;BME280;11075;47.944;11.776;2023-07-09T05:14:37;95390.41;;;6.66;100.00
21826;BME280;11075;47.944;11.776;2023-07-09T05:17:05;95392.94;;;6.89;100.00
21826;BME280;11075;47.944;11.776;2023-07-09T05:19:32;95399.69;;;7.14;100.00
21826;BME280;11075;47.944;11.776;2023-07-09T05:21:59;95397.63;;;7.25;100.00
21826;BME280;11075;47.944;11.776;2023-07-09T05:24:26;95404.97;;;7.33;100.00
21826;BME280;11075;47.944;11.776;2023-07-09T05:26:55;95397.72;;;7.83;100.00
21826;BME280;11075;47.944;11.776;2023-07-09T05:29:22;95396.69;;;7.57;100.00
21826;BME280;11075;47.944;11.776;2023-07-09T05:31:49;95400.34;;;7.97;100.00
21826;BME280;11075;47.944;11.776;2023-07-09T05:34:16;95404.25;;;8.05;100.00
21826;BME280;11075;47.944;11.776;2023-07-09T05:36:43;95409.00;;;8.08;100.00
21826;BME280;11075;47.944;11.776;2023-07-09T05:39:11;95402.03;;;8.51;100.00
21826;BME280;11075;47.944;11.776;2023-07-09T05:41:38;95407.34;;;8.20;100.00
21826;BME280;11075;47.944;11.776;2023-07-09T05:44:05;95403.00;;;8.55;100.00
21826;BME280;11075;47.944;11.776;2023-07-09T05:46:35;95409.22;;;8.65;100.00
21826;BME280;11075;47.944;11.776;2023-07-09T05:49:04;95399.44;;;8.91;100.00
21826;BME280;11075;47.944;11.776;2023-07-09T05:51:31;95411.56;;;9.19;100.00
21826;BME280;11075;47.944;11.776;2023-07-09T05:53:58;95402.41;;;10.03;92.77
21826;BME280;11075;47.944;11.776;2023-07-09T05:56:25;95407.56;;;10.77;87.09
21826;BME280;11075;47.944;11.776;2023-07-09T05:58:52;95409.38;;;9.96;90.30
21826;BME280;11075;47.944;11.776;2023-07-09T06:01:19;95406.00;;;10.68;88.08
21826;BME280;11075;47.944;11.776;2023-07-09T06:03:47;95410.97;;;10.14;88.09
21826;BME280;11075;47.944;11.776;2023-07-09T06:06:14;95407.16;;;11.14;86.17
21826;BME280;11075;47.944;11.776;2023-07-09T06:08:41;95414.63;;;10.35;88.04
21826;BME280;11075;47.944;11.776;2023-07-09T06:11:08;95402.34;;;11.28;85.33
21826;BME280;11075;47.944;11.776;2023-07-09T06:13:35;95411.81;;;11.34;79.93
21826;BME280;11075;47.944;11.776;2023-07-09T06:16:02;95411.59;;;11.48;86.62
21826;BME280;11075;47.944;11.776;2023-07-09T06:18:30;95414.31;;;12.39;78.24
21826;BME280;11075;47.944;11.776;2023-07-09T06:20:59;95407.44;;;11.50;78.36
21826;BME280;11075;47.944;11.776;2023-07-09T06:23:27;95409.22;;;11.46;84.11
21826;BME280;11075;47.944;11.776;2023-07-09T06:25:54;95415.75;;;12.58;76.05
21826;BME280;11075;47.944;11.776;2023-07-09T06:28:24;95410.56;;;11.90;79.88
21826;BME280;11075;47.944;11.776;2023-07-09T06:30:51;95408.25;;;12.76;72.92
21826;BME280;11075;47.944;11.776;2023-07-09T06:33:19;95406.22;;;12.39;74.48
21826;BME280;11075;47.944;11.776;2023-07-09T06:35:51;95407.19;;;13.01;75.64
21826;BME280;11075;47.944;11.776;2023-07-09T06:38:19;95405.69;;;12.91;67.69
21826;BME280;11075;47.944;11.776;2023-07-09T06:40:46;95399.91;;;13.62;61.16
21826;BME280;11075;47.944;11.776;2023-07-09T06:43:13;95411.22;;;14.05;65.81
21826;BME280;11075;47.944;11.776;2023-07-09T06:45:54;95412.63;;;13.50;59.62
21826;BME280;11075;47.944;11.776;2023-07-09T06:48:22;95411.53;;;13.63;71.19
21826;BME280;11075;47.944;11.776;2023-07-09T06:50:49;95411.19;;;14.85;59.58
21826;BME280;11075;47.944;11.776;2023-07-09T06:53:16;95399.13;;;15.30;50.13
21826;BME280;11075;47.944;11.776;2023-07-09T06:55:43;95398.75;;;15.98;49.92
21826;BME280;11075;47.944;11.776;2023-07-09T06:58:10;95398.59;;;15.40;61.92
21826;BME280;11075;47.944;11.776;2023-07-09T07:00:37;95401.31;;;15.55;54.71
21826;BME280;11075;47.944;11.776;2023-07-09T07:03:05;95399.00;;;15.73;54.36
21826;BME280;11075;47.944;11.776;2023-07-09T07:05:33;95395.09;;;16.25;51.58
21826;BME280;11075;47.944;11.776;2023-07-09T07:08:00;95399.53;;;16.14;48.36
21826;BME280;11075;47.944;11.776;2023-07-09T07:10:28;95399.00;;;17.08;45.93
21826;BME280;11075;47.944;11.776;2023-07-09T07:12:55;95398.22;;;17.08;48.75
21826;BME280;11075;47.944;11.776;2023-07-09T07:15:22;95396.97;;;16.40;49.67
21826;BME280;11075;47.944;11.776;2023-07-09T07:17:49;95393.00;;;16.76;50.53
21826;BME280;11075;47.944;11.776;2023-07-09T07:20:17;95394.81;;;17.34;47.79
21826;BME280;11075;47.944;11.776;2023-07-09T07:22:44;95389.19;;;17.72;45.82
21826;BME280;11075;47.944;11.776;2023-07-09T07:25:11;95389.84;;;17.16;49.67
21826;BME280;11075;47.944;11.776;2023-07-09T07:27:39;95392.00;;;17.79;44.96
21826;BME280;11075;47.944;11.776;2023-07-09T07:30:07;95386.19;;;17.81;43.54
21826;BME280;11075;47.944;11.776;2023-07-09T07:32:38;95379.94;;;18.37;40.65
21826;BME280;11075;47.944;11.776;2023-07-09T07:35:05;95391.63;;;18.37;41.65
21826;BME280;11075;47.944;11.776;2023-07-09T07:37:32;95387.75;;;18.08;43.04
21826;BME280;11075;47.944;11.776;2023-07-09T07:40:00;95387.22;;;17.99;40.75
21826;BME280;11075;47.944;11.776;2023-07-09T07:42:27;95382.66;;;18.07;41.14
21826;BME280;11075;47.944;11.776;2023-07-09T07:44:54;95381.09;;;19.10;38.65
21826;BME280;11075;47.944;11.776;2023-07-09T07:47:21;95389.00;;;18.44;38.34
21826;BME280;11075;47.944;11.776;2023-07-09T07:49:48;95384.31;;;17.85;36.67
21826;BME280;11075;47.944;11.776;2023-07-09T07:52:15;95382.00;;;18.17;39.14
21826;BME280;11075;47.944;11.776;2023-07-09T07:54:42;95396.97;;;18.27;36.42
21826;BME280;11075;47.944;11.776;2023-07-09T07:57:09;95378.75;;;18.71;37.22
21826;BME280;11075;47.944;11.776;2023-07-09T07:59:37;95380.84;;;19.26;37.03
21826;BME280;11075;47.944;11.776;2023-07-09T08:02:06;95378.88;;;19.23;35.83
21826;BME280;11075;47.944;11.776;2023-07-09T08:04:36;95378.19;;;19.29;33.32
21826;BME280;11075;47.944;11.776;2023-07-09T08:07:03;95361.50;;;20.03;35.77
21826;BME280;11075;47.944;11.776;2023-07-09T08:09:30;95376.50;;;19.69;35.21
21826;BME280;11075;47.944;11.776;2023-07-09T08:11:57;95369.19;;;19.29;34.83
21826;BME280;11075;47.944;11.776;2023-07-09T08:14:24;95362.97;;;19.87;33.51
21826;BME280;11075;47.944;11.776;2023-07-09T08:16:51;95380.72;;;19.56;33.12
21826;BME280;11075;47.944;11.776;2023-07-09T08:19:19;95389.13;;;19.84;31.32
21826;BME280;11075;47.944;11.776;2023-07-09T08:21:46;95371.56;;;19.30;32.73
21826;BME280;11075;47.944;11.776;2023-07-09T08:24:13;95368.44;;;19.32;32.52
21826;BME280;11075;47.944;11.776;2023-07-09T08:26:41;95355.63;;;19.39;35.14
21826;BME280;11075;47.944;11.776;2023-07-09T08:29:08;95357.72;;;19.60;33.48
21826;BME280;11075;47.944;11.776;2023-07-09T08:31:35;95389.00;;;19.70;31.42
21826;BME280;11075;47.944;11.776;2023-07-09T08:34:02;95369.69;;;20.03;32.24
21826;BME280;11075;47.944;11.776;2023-07-09T08:36:29;95361.97;;;19.54;31.59
21826;BME280;11075;47.944;11.776;2023-07-09T08:38:56;95350.88;;;19.91;32.78
21826;BME280;11075;47.944;11.776;2023-07-09T08:41:46;95344.50;;;19.73;34.91
21826;BME280;11075;47.944;11.776;2023-07-09T08:47:32;95391.94;;;20.92;30.07
21826;BME280;11075;47.944;11.776;2023-07-09T08:50:05;95359.09;;;21.07;32.25
21826;BME280;11075;47.944;11.776;2023-07-09T08:52:41;95357.25;;;20.17;31.33
21826;BME280;11075;47.944;11.776;2023-07-09T08:57:45;95363.78;;;20.85;30.91
21826;BME280;11075;47.944;11.776;2023-07-09T09:00:18;95393.94;;;21.20;28.43
21826;BME280;11075;47.944;11.776;2023-07-09T09:02:56;95373.69;;;20.24;31.35
21826;BME280;11075;47.944;11.776;2023-07-09T09:05:25;95365.38;;;21.14;32.29
21826;BME280;11075;47.944;11.776;2023-07-09T09:07:58;95366.94;;;21.22;30.21
21826;BME280;11075;47.944;11.776;2023-07-09T09:10:46;95374.78;;;21.59;29.98
21826;BME280;11075;47.944;11.776;2023-07-09T09:13:16;95346.19;;;21.14;30.02
21826;BME280;11075;47.944;11.776;2023-07-09T09:15:45;95345.03;;;21.54;32.32
21826;BME280;11075;47.944;11.776;2023-07-09T09:18:23;95389.22;;;20.96;29.63
21826;BME280;11075;47.944;11.776;2023-07-09T09:21:01;95368.25;;;20.31;31.09
21826;BME280;11075;47.944;11.776;2023-07-09T09:23:46;95341.84;;;21.91;30.60
21826;BME280;11075;47.944;11.776;2023-07-09T09:26:21;95352.44;;;21.72;29.89
21826;BME280;11075;47.944;11.776;2023-07-09T09:28:50;95342.69;;;21.49;30.58
21826;BME280;11075;47.944;11.776;2023-07-09T09:31:18;95355.59;;;21.03;29.88
21826;BME280;11075;47.944;11.776;2023-07-09T09:33:48;95334.44;;;20.82;31.22
21826;BME280;11075;47.944;11.776;2023-07-09T09:36:21;95346.53;;;21.95;29.98
21826;BME280;11075;47.944;11.776;2023-07-09T09:38:48;95358.31;;;21.88;28.47
21826;BME280;11075;47.944;11.776;2023-07-09T09:41:25;95370.06;;;21.67;28.19
21826;BME280;11075;47.944;11.776;2023-07-09T09:43:53;95380.53;;;23.06;26.59
21826;BME280;11075;47.944;11.776;2023-07-09T09:46:24;95345.19;;;22.42;29.15
21826;BME280;11075;47.944;11.776;2023-07-09T09:48:58;95385.16;;;22.46;27.75
21826;BME280;11075;47.944;11.776;2023-07-09T09:51:26;95345.44;;;21.42;30.28
21826;BME280;11075;47.944;11.776;2023-07-09T09:53:58;95321.22;;;22.49;32.56
21826;BME280;11075;47.944;11.776;2023-07-09T09:56:36;95390.06;;;23.46;26.92
21826;BME280;11075;47.944;11.776;2023-07-09T09:59:04;95385.78;;;22.82;27.06
21826;BME280;11075;47.944;11.776;2023-07-09T10:01:34;95327.13;;;22.48;30.22
21826;BME280;11075;47.944;11.776;2023-07-09T10:04:05;95342.03;;;22.43;30.93
21826;BME280;11075;47.944;11.776;2023-07-09T10:06:36;95350.66;;;22.45;31.52
21826;BME280;11075;47.944;11.776;2023-07-09T10:12:24;95372.38;;;20.87;28.07
21826;BME280;11075;47.944;11.776;2023-07-09T10:21:03;95326.56;;;21.76;30.96
21826;BME280;11075;47.944;11.776;2023-07-09T10:23:41;95347.84;;;22.60;30.08
21826;BME280;11075;47.944;11.776;2023-07-09T10:26:15;95382.78;;;23.25;26.54
21826;BME280;11075;47.944;11.776;2023-07-09T10:34:36;95356.13;;;23.63;27.60
21826;BME280;11075;47.944;11.776;2023-07-09T10:39:57;95368.31;;;24.03;27.12
21826;BME280;11075;47.944;11.776;2023-07-09T10:42:29;95348.88;;;21.96;28.65
21826;BME280;11075;47.944;11.776;2023-07-09T10:45:28;95378.94;;;23.08;26.98
21826;BME280;11075;47.944;11.776;2023-07-09T10:48:02;95337.63;;;23.67;27.80
21826;BME280;11075;47.944;11.776;2023-07-09T10:50:36;95363.09;;;23.78;27.44
21826;BME280;11075;47.944;11.776;2023-07-09T10:53:11;95345.19;;;23.56;27.91
21826;BME280;11075;47.944;11.776;2023-07-09T10:55:50;95377.72;;;25.01;25.59
21826;BME280;11075;47.944;11.776;2023-07-09T11:00:51;95320.97;;;23.85;29.05
21826;BME280;11075;47.944;11.776;2023-07-09T11:03:22;95283.41;;;23.71;32.03
21826;BME280;11075;47.944;11.776;2023-07-09T11:05:51;95357.53;;;23.41;27.58
21826;BME280;11075;47.944;11.776;2023-07-09T11:08:33;95344.97;;;23.81;27.74
21826;BME280;11075;47.944;11.776;2023-07-09T11:11:04;95303.63;;;23.02;30.82
21826;BME280;11075;47.944;11.776;2023-07-09T11:16:27;95323.06;;;22.77;28.29
21826;BME280;11075;47.944;11.776;2023-07-09T11:19:01;95364.28;;;22.67;25.53
21826;BME280;11075;47.944;11.776;2023-07-09T11:21:28;95348.25;;;23.17;26.85
21826;BME280;11075;47.944;11.776;2023-07-09T11:23:57;95294.66;;;22.95;28.84
21826;BME280;11075;47.944;11.776;2023-07-09T11:26:33;95347.16;;;23.07;27.22
21826;BME280;11075;47.944;11.776;2023-07-09T11:31:41;95333.38;;;24.00;26.50
21826;BME280;11075;47.944;11.776;2023-07-09T11:34:14;95370.19;;;24.13;23.93
21826;BME280;11075;47.944;11.776;2023-07-09T11:39:21;95322.91;;;22.22;26.54
21826;BME280;11075;47.944;11.776;2023-07-09T11:41:49;95308.81;;;23.82;26.50
21826;BME280;11075;47.944;11.776;2023-07-09T11:44:33;95313.75;;;23.12;26.46
21826;BME280;11075;47.944;11.776;2023-07-09T11:49:54;95283.63;;;22.43;28.19
21826;BME280;11075;47.944;11.776;2023-07-09T11:52:30;95329.78;;;23.69;26.04
21826;BME280;11075;47.944;11.776;2023-07-09T11:55:47;95313.69;;;23.64;27.16
21826;BME280;11075;47.944;11.776;2023-07-09T11:57:53;95292.19;;;23.93;27.79
21826;BME280;11075;47.944;11.776;2023-07-09T12:00:20;95292.75;;;23.36;27.62
21826;BME280;11075;47.944;11.776;2023-07-09T12:02:47;95350.28;;;23.58;24.39
21826;BME280;11075;47.944;11.776;2023-07-09T12:05:19;95312.13;;;24.35;25.65
21826;BME280;11075;47.944;11.776;2023-07-09T12:07:47;95330.16;;;24.97;24.24
21826;BME280;11075;47.944;11.776;2023-07-09T12:10:19;95318.50;;;23.94;24.75
21826;BME280;11075;47.944;11.776;2023-07-09T12:12:46;95306.16;;;23.31;24.64
21826;BME280;11075;47.944;11.776;2023-07-09T12:15:25;95279.28;;;24.21;26.00
21826;BME280;11075;47.944;11.776;2023-07-09T12:18:00;95336.16;;;24.65;23.15
21826;BME280;11075;47.944;11.776;2023-07-09T12:20:35;95283.28;;;23.41;25.75
21826;BME280;11075;47.944;11.776;2023-07-09T12:23:32;95253.56;;;22.84;26.57
21826;BME280;11075;47.944;11.776;2023-07-09T12:26:01;95252.69;;;22.94;27.22
21826;BME280;11075;47.944;11.776;2023-07-09T12:28:29;95253.91;;;23.34;26.95
21826;BME280;11075;47.944;11.776;2023-07-09T12:30:56;95253.34;;;23.50;26.45
21826;BME280;11075;47.944;11.776;2023-07-09T12:33:25;95243.06;;;23.92;27.87
21826;BME280;11075;47.944;11.776;2023-07-09T12:36:00;95307.56;;;24.82;23.69
21826;BME280;11075;47.944;11.776;2023-07-09T12:38:38;95232.03;;;24.26;27.28
21826;BME280;11075;47.944;11.776;2023-07-09T12:43:49;95271.09;;;23.83;25.19
21826;BME280;11075;47.944;11.776;2023-07-09T12:46:16;95263.28;;;22.92;24.84
21826;BME280;11075;47.944;11.776;2023-07-09T12:48:45;95282.69;;;24.32;23.95
21826;BME280;11075;47.944;11.776;2023-07-09T12:51:16;95264.00;;;23.44;24.89
21826;BME280;11075;47.944;11.776;2023-07-09T12:53:46;95236.97;;;23.77;26.25
21826;BME280;11075;47.944;11.776;2023-07-09T12:56:15;95265.38;;;23.26;24.64
21826;BME280;11075;47.944;11.776;2023-07-09T12:58:43;95226.09;;;23.29;26.28
21826;BME280;11075;47.944;11.776;2023-07-09T13:01:16;95253.66;;;23.93;24.79
21826;BME280;11075;47.944;11.776;2023-07-09T13:03:54;95246.19;;;23.94;24.92
21826;BME280;11075;47.944;11.776;2023-07-09T13:06:30;95266.13;;;24.35;23.34
21826;BME280;11075;47.944;11.776;2023-07-09T13:09:01;95239.19;;;23.89;25.19
21826;BME280;11075;47.944;11.776;2023-07-09T13:11:36;95241.06;;;22.76;25.20
21826;BME280;11075;47.944;11.776;2023-07-09T13:14:05;95249.31;;;22.69;25.21
21826;BME280;11075;47.944;11.776;2023-07-09T13:16:39;95229.16;;;23.72;24.54
21826;BME280;11075;47.944;11.776;2023-07-09T13:19:10;95272.84;;;23.63;22.96
21826;BME280;11075;47.944;11.776;2023-07-09T13:21:38;95239.59;;;23.50;24.41
21826;BME280;11075;47.944;11.776;2023-07-09T13:24:22;95226.38;;;23.38;25.07
21826;BME280;11075;47.944;11.776;2023-07-09T13:26:49;95240.94;;;23.72;24.39
21826;BME280;11075;47.944;11.776;2023-07-09T13:29:18;95246.94;;;22.78;23.98
21826;BME280;11075;47.944;11.776;2023-07-09T13:31:46;95262.41;;;23.85;22.69
21826;BME280;11075;47.944;11.776;2023-07-09T13:34:19;95248.38;;;23.75;23.91
21826;BME280;11075;47.944;11.776;2023-07-09T13:36:47;95234.81;;;23.92;23.98
21826;BME280;11075;47.944;11.776;2023-07-09T13:39:14;95265.59;;;23.83;23.03
21826;BME280;11075;47.944;11.776;2023-07-09T13:41:43;95255.25;;;23.15;23.03
21826;BME280;11075;47.944;11.776;2023-07-09T13:44:17;95255.19;;;23.23;23.30
21826;BME280;11075;47.944;11.776;2023-07-09T13:46:45;95263.75;;;22.83;23.25
21826;BME280;11075;47.944;11.776;2023-07-09T13:49:14;95251.25;;;22.72;23.03